sensor_id;sensor_type;location;lat;lon;timestamp;temperature;humidity
39079;DHT22;24829;49.208;12.080;2022-09-20T00:00:43;9.20;99.90
39079;DHT22;24829;49.208;12.080;2022-09-20T00:03:10;9.20;99.90
39079;DHT22;24829;49.208;12.080;2022-09-20T00:05:37;9.10;99.90
39079;DHT22;24829;49.208;12.080;2022-09-20T00:08:05;9.10;99.90
39079;DHT22;24829;49.208;12.080;2022-09-20T00:10:33;9.10;99.90
39079;DHT22;24829;49.208;12.080;2022-09-20T00:13:00;9.10;99.90
39079;DHT22;24829;49.208;12.080;2022-09-20T00:15:26;9.10;99.90
39079;DHT22;24829;49.208;12.080;2022-09-20T00:17:51;9.10;99.90
39079;DHT22;24829;49.208;12.080;2022-09-20T00:20:17;9.20;99.90
39079;DHT22;24829;49.208;12.080;2022-09-20T00:22:43;9.20;99.90
39079;DHT22;24829;49.208;12.080;2022-09-20T00:25:08;9.20;99.90
39079;DHT22;24829;49.208;12.080;2022-09-20T00:27:35;9.10;99.90
39079;DHT22;24829;49.208;12.080;2022-09-20T00:30:00;9.20;99.90
39079;DHT22;24829;49.208;12.080;2022-09-20T00:32:26;9.30;99.90
39079;DHT22;24829;49.208;12.080;2022-09-20T00:34:51;9.20;99.90
39079;DHT22;24829;49.208;12.080;2022-09-20T00:37:33;9.20;99.90
39079;DHT22;24829;49.208;12.080;2022-09-20T00:39:59;9.20;99.90
39079;DHT22;24829;49.208;12.080;2022-09-20T00:42:28;9.10;99.90
39079;DHT22;24829;49.208;12.080;2022-09-20T00:45:06;9.10;99.90
39079;DHT22;24829;49.208;12.080;2022-09-20T00:47:46;9.10;99.90
39079;DHT22;24829;49.208;12.080;2022-09-20T00:50:26;9.10;99.90
39079;DHT22;24829;49.208;12.080;2022-09-20T00:55:32;9.00;99.90
39079;DHT22;24829;49.208;12.080;2022-09-20T00:57:59;9.00;99.90
39079;DHT22;24829;49.208;12.080;2022-09-20T01:00:26;9.00;99.90
39079;DHT22;24829;49.208;12.080;2022-09-20T01:02:56;9.00;99.90
39079;DHT22;24829;49.208;12.080;2022-09-20T01:05:23;8.90;99.90
39079;DHT22;24829;49.208;12.080;2022-09-20T01:07:50;8.90;99.90
39079;DHT22;24829;49.208;12.080;2022-09-20T01:10:16;8.90;99.90
39079;DHT22;24829;49.208;12.080;2022-09-20T01:12:42;8.90;99.90
39079;DHT22;24829;49.208;12.080;2022-09-20T01:15:10;8.90;99.90
39079;DHT22;24829;49.208;12.080;2022-09-20T01:17:39;8.90;99.90
39079;DHT22;24829;49.208;12.080;2022-09-20T01:28:09;8.90;99.90
39079;DHT22;24829;49.208;12.080;2022-09-20T01:30:46;8.90;99.90
39079;DHT22;24829;49.208;12.080;2022-09-20T01:33:38;8.90;99.90
39079;DHT22;24829;49.208;12.080;2022-09-20T01:36:08;8.90;99.90
39079;DHT22;24829;49.208;12.080;2022-09-20T01:38:43;8.90;99.90
39079;DHT22;24829;49.208;12.080;2022-09-20T01:43:52;8.90;99.90
39079;DHT22;24829;49.208;12.080;2022-09-20T01:48:47;8.90;99.90
39079;DHT22;24829;49.208;12.080;2022-09-20T01:51:33;8.90;99.90
39079;DHT22;24829;49.208;12.080;2022-09-20T02:00:03;8.90;99.90
39079;DHT22;24829;49.208;12.080;2022-09-20T02:07:58;8.80;99.90
39079;DHT22;24829;49.208;12.080;2022-09-20T02:19:06;8.80;99.90
39079;DHT22;24829;49.208;12.080;2022-09-20T02:24:37;8.80;99.90
39079;DHT22;24829;49.208;12.080;2022-09-20T02:29:59;8.80;99.90
39079;DHT22;24829;49.208;12.080;2022-09-20T02:32:53;8.80;99.90
39079;DHT22;24829;49.208;12.080;2022-09-20T02:40:47;8.70;99.90
39079;DHT22;24829;49.208;12.080;2022-09-20T02:45:58;8.80;99.90
39079;DHT22;24829;49.208;12.080;2022-09-20T02:48:47;8.80;99.90
39079;DHT22;24829;49.208;12.080;2022-09-20T02:51:23;8.90;99.90
39079;DHT22;24829;49.208;12.080;2022-09-20T02:57:20;8.90;99.90
39079;DHT22;24829;49.208;12.080;2022-09-20T03:00:01;8.80;99.90
39079;DHT22;24829;49.208;12.080;2022-09-20T03:05:26;8.90;99.90
39079;DHT22;24829;49.208;12.080;2022-09-20T03:11:03;8.80;99.90
39079;DHT22;24829;49.208;12.080;2022-09-20T03:13:35;8.80;99.90
39079;DHT22;24829;49.208;12.080;2022-09-20T03:16:14;8.90;99.90
39079;DHT22;24829;49.208;12.080;2022-09-20T03:18:49;8.90;99.90
39079;DHT22;24829;49.208;12.080;2022-09-20T03:21:55;9.00;99.90
39079;DHT22;24829;49.208;12.080;2022-09-20T03:33:21;8.80;99.90
39079;DHT22;24829;49.208;12.080;2022-09-20T03:36:05;8.90;99.90
39079;DHT22;24829;49.208;12.080;2022-09-20T03:47:46;8.70;99.90
39079;DHT22;24829;49.208;12.080;2022-09-20T03:50:30;8.70;99.90
39079;DHT22;24829;49.208;12.080;2022-09-20T03:53:25;8.60;99.90
39079;DHT22;24829;49.208;12.080;2022-09-20T03:59:04;8.70;99.90
39079;DHT22;24829;49.208;12.080;2022-09-20T04:10:35;8.80;99.90
39079;DHT22;24829;49.208;12.080;2022-09-20T04:16:07;8.90;99.90
39079;DHT22;24829;49.208;12.080;2022-09-20T04:21:11;8.80;99.90
39079;DHT22;24829;49.208;12.080;2022-09-20T04:26:27;8.90;99.90
39079;DHT22;24829;49.208;12.080;2022-09-20T04:29:04;9.00;99.90
39079;DHT22;24829;49.208;12.080;2022-09-20T04:31:51;9.00;99.90
39079;DHT22;24829;49.208;12.080;2022-09-20T04:34:23;9.00;99.90
39079;DHT22;24829;49.208;12.080;2022-09-20T04:37:26;9.00;99.90
39079;DHT22;24829;49.208;12.080;2022-09-20T04:43:15;9.00;99.90
39079;DHT22;24829;49.208;12.080;2022-09-20T04:46:10;9.00;99.90
39079;DHT22;24829;49.208;12.080;2022-09-20T05:05:47;9.00;99.90
39079;DHT22;24829;49.208;12.080;2022-09-20T05:11:06;8.90;99.90
39079;DHT22;24829;49.208;12.080;2022-09-20T05:22:28;8.80;99.90
39079;DHT22;24829;49.208;12.080;2022-09-20T05:28:15;8.90;99.90
39079;DHT22;24829;49.208;12.080;2022-09-20T05:31:33;8.90;99.90
39079;DHT22;24829;49.208;12.080;2022-09-20T05:33:52;9.00;99.90
39079;DHT22;24829;49.208;12.080;2022-09-20T05:39:20;9.00;99.90
39079;DHT22;24829;49.208;12.080;2022-09-20T05:47:08;8.80;99.90
39079;DHT22;24829;49.208;12.080;2022-09-20T05:52:24;8.80;99.90
39079;DHT22;24829;49.208;12.080;2022-09-20T05:57:51;8.90;99.90
39079;DHT22;24829;49.208;12.080;2022-09-20T06:00:22;9.00;99.90
39079;DHT22;24829;49.208;12.080;2022-09-20T06:02:54;9.00;99.90
39079;DHT22;24829;49.208;12.080;2022-09-20T06:11:22;9.20;99.90
39079;DHT22;24829;49.208;12.080;2022-09-20T06:22:28;9.60;99.90
39079;DHT22;24829;49.208;12.080;2022-09-20T06:25:02;9.80;99.90
39079;DHT22;24829;49.208;12.080;2022-09-20T06:27:37;10.20;99.90
39079;DHT22;24829;49.208;12.080;2022-09-20T06:30:11;10.60;99.90
39079;DHT22;24829;49.208;12.080;2022-09-20T06:32:53;11.10;99.90
39079;DHT22;24829;49.208;12.080;2022-09-20T06:35:22;11.70;99.90
39079;DHT22;24829;49.208;12.080;2022-09-20T06:38:08;12.20;99.90
39079;DHT22;24829;49.208;12.080;2022-09-20T06:40:54;12.60;99.90
39079;DHT22;24829;49.208;12.080;2022-09-20T06:43:39;12.70;99.90
39079;DHT22;24829;49.208;12.080;2022-09-20T06:46:06;12.80;99.90
39079;DHT22;24829;49.208;12.080;2022-09-20T06:48:32;13.00;99.90
39079;DHT22;24829;49.208;12.080;2022-09-20T06:50:57;13.30;99.90
39079;DHT22;24829;49.208;12.080;2022-09-20T06:53:31;13.50;99.90
39079;DHT22;24829;49.208;12.080;2022-09-20T06:55:57;13.60;99.90
39079;DHT22;24829;49.208;12.080;2022-09-20T06:58:23;13.50;99.90
39079;DHT22;24829;49.208;12.080;2022-09-20T07:00:49;13.40;99.90
39079;DHT22;24829;49.208;12.080;2022-09-20T07:03:15;13.50;99.90
39079;DHT22;24829;49.208;12.080;2022-09-20T07:05:40;13.50;99.90
39079;DHT22;24829;49.208;12.080;2022-09-20T07:08:06;13.40;99.90
39079;DHT22;24829;49.208;12.080;2022-09-20T07:10:31;13.20;99.90
39079;DHT22;24829;49.208;12.080;2022-09-20T07:12:58;13.00;99.90
39079;DHT22;24829;49.208;12.080;2022-09-20T07:15:25;12.80;99.90
39079;DHT22;24829;49.208;12.080;2022-09-20T07:17:51;12.60;99.90
39079;DHT22;24829;49.208;12.080;2022-09-20T07:20:17;12.30;99.90
39079;DHT22;24829;49.208;12.080;2022-09-20T07:22:44;12.10;99.90
39079;DHT22;24829;49.208;12.080;2022-09-20T07:25:10;11.90;99.90
39079;DHT22;24829;49.208;12.080;2022-09-20T07:27:35;11.80;99.90
39079;DHT22;24829;49.208;12.080;2022-09-20T07:30:01;11.70;99.90
39079;DHT22;24829;49.208;12.080;2022-09-20T07:32:26;11.60;99.90
39079;DHT22;24829;49.208;12.080;2022-09-20T07:34:52;11.50;99.90
39079;DHT22;24829;49.208;12.080;2022-09-20T07:37:17;11.50;99.90
39079;DHT22;24829;49.208;12.080;2022-09-20T07:39:44;11.60;99.90
39079;DHT22;24829;49.208;12.080;2022-09-20T07:42:10;11.70;99.90
39079;DHT22;24829;49.208;12.080;2022-09-20T07:44:36;11.70;99.90
39079;DHT22;24829;49.208;12.080;2022-09-20T07:47:05;11.80;99.90
39079;DHT22;24829;49.208;12.080;2022-09-20T07:49:30;11.90;99.90
39079;DHT22;24829;49.208;12.080;2022-09-20T07:51:57;11.80;99.90
39079;DHT22;24829;49.208;12.080;2022-09-20T07:54:22;11.70;99.90
39079;DHT22;24829;49.208;12.080;2022-09-20T07:56:48;11.60;99.90
39079;DHT22;24829;49.208;12.080;2022-09-20T07:59:14;11.60;99.90
39079;DHT22;24829;49.208;12.080;2022-09-20T08:01:40;11.70;99.90
39079;DHT22;24829;49.208;12.080;2022-09-20T08:04:07;11.80;99.90
39079;DHT22;24829;49.208;12.080;2022-09-20T08:06:41;11.90;99.90
39079;DHT22;24829;49.208;12.080;2022-09-20T08:09:07;12.10;99.90
39079;DHT22;24829;49.208;12.080;2022-09-20T08:11:34;12.10;99.90
39079;DHT22;24829;49.208;12.080;2022-09-20T08:14:00;12.20;99.90
39079;DHT22;24829;49.208;12.080;2022-09-20T08:16:28;12.30;99.90
39079;DHT22;24829;49.208;12.080;2022-09-20T08:18:56;12.30;99.90
39079;DHT22;24829;49.208;12.080;2022-09-20T08:21:23;12.30;99.90
39079;DHT22;24829;49.208;12.080;2022-09-20T08:23:49;12.30;99.90
39079;DHT22;24829;49.208;12.080;2022-09-20T08:26:17;12.40;99.90
39079;DHT22;24829;49.208;12.080;2022-09-20T08:28:43;12.40;99.90
39079;DHT22;24829;49.208;12.080;2022-09-20T08:31:12;12.40;99.90
39079;DHT22;24829;49.208;12.080;2022-09-20T08:33:39;12.30;99.90
39079;DHT22;24829;49.208;12.080;2022-09-20T08:36:16;12.30;99.90
39079;DHT22;24829;49.208;12.080;2022-09-20T08:38:43;12.30;99.90
39079;DHT22;24829;49.208;12.080;2022-09-20T08:43:47;12.50;99.90
39079;DHT22;24829;49.208;12.080;2022-09-20T08:46:16;12.60;99.90
39079;DHT22;24829;49.208;12.080;2022-09-20T08:48:43;12.70;99.90
39079;DHT22;24829;49.208;12.080;2022-09-20T08:51:11;12.60;99.90
39079;DHT22;24829;49.208;12.080;2022-09-20T08:53:43;12.60;99.90
39079;DHT22;24829;49.208;12.080;2022-09-20T08:56:10;12.40;99.90
39079;DHT22;24829;49.208;12.080;2022-09-20T08:58:36;12.40;99.90
39079;DHT22;24829;49.208;12.080;2022-09-20T09:01:05;12.30;99.90
39079;DHT22;24829;49.208;12.080;2022-09-20T09:03:32;12.40;99.90
39079;DHT22;24829;49.208;12.080;2022-09-20T09:05:58;12.50;99.90
39079;DHT22;24829;49.208;12.080;2022-09-20T09:10:56;12.70;99.90
39079;DHT22;24829;49.208;12.080;2022-09-20T09:15:56;13.10;99.90
39079;DHT22;24829;49.208;12.080;2022-09-20T09:18:49;13.30;99.90
39079;DHT22;24829;49.208;12.080;2022-09-20T09:21:21;13.20;99.90
39079;DHT22;24829;49.208;12.080;2022-09-20T09:24:05;13.20;99.90
39079;DHT22;24829;49.208;12.080;2022-09-20T09:26:36;13.10;99.90
39079;DHT22;24829;49.208;12.080;2022-09-20T09:29:20;13.00;99.90
39079;DHT22;24829;49.208;12.080;2022-09-20T09:31:48;13.00;99.90
39079;DHT22;24829;49.208;12.080;2022-09-20T09:34:31;13.10;99.90
39079;DHT22;24829;49.208;12.080;2022-09-20T09:37:03;13.20;99.90
39079;DHT22;24829;49.208;12.080;2022-09-20T09:39:34;13.20;99.90
39079;DHT22;24829;49.208;12.080;2022-09-20T09:42:21;13.30;99.90
39079;DHT22;24829;49.208;12.080;2022-09-20T09:44:50;13.60;99.90
39079;DHT22;24829;49.208;12.080;2022-09-20T09:47:25;13.80;99.90
39079;DHT22;24829;49.208;12.080;2022-09-20T09:49:59;13.90;99.90
39079;DHT22;24829;49.208;12.080;2022-09-20T09:52:25;13.90;99.90
39079;DHT22;24829;49.208;12.080;2022-09-20T09:54:54;14.10;99.90
39079;DHT22;24829;49.208;12.080;2022-09-20T09:57:48;14.30;99.90
39079;DHT22;24829;49.208;12.080;2022-09-20T10:00:23;14.40;99.90
39079;DHT22;24829;49.208;12.080;2022-09-20T10:13:57;13.50;99.90
39079;DHT22;24829;49.208;12.080;2022-09-20T10:16:31;13.30;99.90
39079;DHT22;24829;49.208;12.080;2022-09-20T10:19:18;13.20;99.90
39079;DHT22;24829;49.208;12.080;2022-09-20T10:22:07;13.20;99.90
39079;DHT22;24829;49.208;12.080;2022-09-20T10:30:35;14.00;99.90
39079;DHT22;24829;49.208;12.080;2022-09-20T10:35:54;14.10;99.90
39079;DHT22;24829;49.208;12.080;2022-09-20T10:38:33;14.20;99.90
39079;DHT22;24829;49.208;12.080;2022-09-20T10:41:13;14.20;99.90
39079;DHT22;24829;49.208;12.080;2022-09-20T10:47:00;14.40;99.90
39079;DHT22;24829;49.208;12.080;2022-09-20T11:05:29;13.90;99.90
39079;DHT22;24829;49.208;12.080;2022-09-20T11:08:18;13.70;99.90
39079;DHT22;24829;49.208;12.080;2022-09-20T11:11:12;13.70;99.90
39079;DHT22;24829;49.208;12.080;2022-09-20T11:19:49;14.10;99.90
39079;DHT22;24829;49.208;12.080;2022-09-20T11:27:55;13.40;99.90
39079;DHT22;24829;49.208;12.080;2022-09-20T11:30:23;13.10;99.90
39079;DHT22;24829;49.208;12.080;2022-09-20T11:33:03;12.90;99.90
39079;DHT22;24829;49.208;12.080;2022-09-20T11:35:42;12.80;99.90
39079;DHT22;24829;49.208;12.080;2022-09-20T11:38:47;12.70;99.90
39079;DHT22;24829;49.208;12.080;2022-09-20T11:41:35;12.70;99.90
39079;DHT22;24829;49.208;12.080;2022-09-20T11:44:06;12.80;99.90
39079;DHT22;24829;49.208;12.080;2022-09-20T11:46:41;12.90;99.90
39079;DHT22;24829;49.208;12.080;2022-09-20T11:49:15;13.10;99.90
39079;DHT22;24829;49.208;12.080;2022-09-20T11:51:57;13.30;99.90
39079;DHT22;24829;49.208;12.080;2022-09-20T11:57:26;13.70;99.90
39079;DHT22;24829;49.208;12.080;2022-09-20T11:59:58;14.00;99.90
39079;DHT22;24829;49.208;12.080;2022-09-20T12:05:00;14.20;99.90
39079;DHT22;24829;49.208;12.080;2022-09-20T12:10:05;14.40;99.90
39079;DHT22;24829;49.208;12.080;2022-09-20T12:12:46;14.50;99.90
39079;DHT22;24829;49.208;12.080;2022-09-20T12:15:24;14.50;99.90
39079;DHT22;24829;49.208;12.080;2022-09-20T12:26:11;13.60;99.90
39079;DHT22;24829;49.208;12.080;2022-09-20T12:28:57;13.10;99.90
39079;DHT22;24829;49.208;12.080;2022-09-20T12:36:27;12.00;99.90
39079;DHT22;24829;49.208;12.080;2022-09-20T12:39:05;11.90;99.90
39079;DHT22;24829;49.208;12.080;2022-09-20T12:47:02;12.10;99.90
39079;DHT22;24829;49.208;12.080;2022-09-20T13:03:26;12.40;99.90
39079;DHT22;24829;49.208;12.080;2022-09-20T13:08:41;12.30;99.90
39079;DHT22;24829;49.208;12.080;2022-09-20T13:11:13;12.30;99.90
39079;DHT22;24829;49.208;12.080;2022-09-20T13:16:28;12.50;99.90
39079;DHT22;24829;49.208;12.080;2022-09-20T13:21:26;12.70;99.90
39079;DHT22;24829;49.208;12.080;2022-09-20T13:23:52;12.80;99.90
39079;DHT22;24829;49.208;12.080;2022-09-20T13:26:25;12.90;99.90
39079;DHT22;24829;49.208;12.080;2022-09-20T13:28:53;13.00;99.90
39079;DHT22;24829;49.208;12.080;2022-09-20T13:33:45;12.90;99.90
39079;DHT22;24829;49.208;12.080;2022-09-20T13:36:11;12.90;99.90
39079;DHT22;24829;49.208;12.080;2022-09-20T13:38:37;12.80;99.90
39079;DHT22;24829;49.208;12.080;2022-09-20T13:41:05;12.70;99.90
39079;DHT22;24829;49.208;12.080;2022-09-20T13:43:39;12.70;99.90
39079;DHT22;24829;49.208;12.080;2022-09-20T13:46:10;12.70;99.90
39079;DHT22;24829;49.208;12.080;2022-09-20T13:48:36;12.70;99.90
39079;DHT22;24829;49.208;12.080;2022-09-20T13:51:02;12.80;99.90
39079;DHT22;24829;49.208;12.080;2022-09-20T13:53:29;12.90;99.90
39079;DHT22;24829;49.208;12.080;2022-09-20T13:55:57;12.90;99.90
39079;DHT22;24829;49.208;12.080;2022-09-20T13:58:26;13.00;99.90
39079;DHT22;24829;49.208;12.080;2022-09-20T14:00:59;13.10;99.90
39079;DHT22;24829;49.208;12.080;2022-09-20T14:03:27;13.20;99.90
39079;DHT22;24829;49.208;12.080;2022-09-20T14:05:59;13.30;99.90
39079;DHT22;24829;49.208;12.080;2022-09-20T14:08:27;13.20;99.90
39079;DHT22;24829;49.208;12.080;2022-09-20T14:13:39;13.20;99.90
39079;DHT22;24829;49.208;12.080;2022-09-20T14:16:07;13.20;99.90
39079;DHT22;24829;49.208;12.080;2022-09-20T14:18:34;13.30;99.90
39079;DHT22;24829;49.208;12.080;2022-09-20T14:21:00;13.30;99.90
39079;DHT22;24829;49.208;12.080;2022-09-20T14:23:28;13.50;99.90
39079;DHT22;24829;49.208;12.080;2022-09-20T14:28:42;13.60;99.90
39079;DHT22;24829;49.208;12.080;2022-09-20T14:31:24;13.70;99.90
39079;DHT22;24829;49.208;12.080;2022-09-20T14:33:54;13.70;99.90
39079;DHT22;24829;49.208;12.080;2022-09-20T14:36:23;13.80;99.90
39079;DHT22;24829;49.208;12.080;2022-09-20T14:38:52;13.90;99.90
39079;DHT22;24829;49.208;12.080;2022-09-20T14:41:33;14.00;99.90
39079;DHT22;24829;49.208;12.080;2022-09-20T14:44:00;14.10;99.90
39079;DHT22;24829;49.208;12.080;2022-09-20T14:46:32;14.20;99.90
39079;DHT22;24829;49.208;12.080;2022-09-20T14:51:51;13.90;99.90
39079;DHT22;24829;49.208;12.080;2022-09-20T14:54:28;13.60;99.90
39079;DHT22;24829;49.208;12.080;2022-09-20T14:56:56;13.10;99.90
39079;DHT22;24829;49.208;12.080;2022-09-20T14:59:24;12.80;99.90
39079;DHT22;24829;49.208;12.080;2022-09-20T15:04:22;12.40;99.90
39079;DHT22;24829;49.208;12.080;2022-09-20T15:06:50;12.40;99.90
39079;DHT22;24829;49.208;12.080;2022-09-20T15:09:17;12.30;99.90
39079;DHT22;24829;49.208;12.080;2022-09-20T15:11:44;12.30;99.90
39079;DHT22;24829;49.208;12.080;2022-09-20T15:14:09;12.40;99.90
39079;DHT22;24829;49.208;12.080;2022-09-20T15:16:35;12.40;99.90
39079;DHT22;24829;49.208;12.080;2022-09-20T15:19:01;12.50;99.90
39079;DHT22;24829;49.208;12.080;2022-09-20T15:21:26;12.40;99.90
39079;DHT22;24829;49.208;12.080;2022-09-20T15:23:52;12.50;99.90
39079;DHT22;24829;49.208;12.080;2022-09-20T15:26:19;12.50;99.90
39079;DHT22;24829;49.208;12.080;2022-09-20T15:28:46;12.50;99.90
39079;DHT22;24829;49.208;12.080;2022-09-20T15:31:12;12.40;99.90
39079;DHT22;24829;49.208;12.080;2022-09-20T15:33:39;12.50;99.90
39079;DHT22;24829;49.208;12.080;2022-09-20T15:36:06;12.50;99.90
39079;DHT22;24829;49.208;12.080;2022-09-20T15:38:32;12.60;99.90
39079;DHT22;24829;49.208;12.080;2022-09-20T15:41:01;12.70;99.90
39079;DHT22;24829;49.208;12.080;2022-09-20T15:43:30;12.60;99.90
39079;DHT22;24829;49.208;12.080;2022-09-20T15:46:15;12.60;99.90
39079;DHT22;24829;49.208;12.080;2022-09-20T15:48:41;12.60;99.90
39079;DHT22;24829;49.208;12.080;2022-09-20T15:51:08;12.50;99.90
39079;DHT22;24829;49.208;12.080;2022-09-20T15:53:37;12.40;99.90
39079;DHT22;24829;49.208;12.080;2022-09-20T15:56:14;12.30;99.90
39079;DHT22;24829;49.208;12.080;2022-09-20T15:58:43;12.30;99.90
39079;DHT22;24829;49.208;12.080;2022-09-20T16:01:11;12.30;99.90
39079;DHT22;24829;49.208;12.080;2022-09-20T16:03:36;12.30;99.90
39079;DHT22;24829;49.208;12.080;2022-09-20T16:06:06;12.30;99.90
39079;DHT22;24829;49.208;12.080;2022-09-20T16:08:40;12.30;99.90
39079;DHT22;24829;49.208;12.080;2022-09-20T16:11:08;12.20;99.90
39079;DHT22;24829;49.208;12.080;2022-09-20T16:13:34;12.10;99.90
39079;DHT22;24829;49.208;12.080;2022-09-20T16:16:04;12.10;99.90
39079;DHT22;24829;49.208;12.080;2022-09-20T16:18:30;12.10;99.90
39079;DHT22;24829;49.208;12.080;2022-09-20T16:21:16;12.20;99.90
39079;DHT22;24829;49.208;12.080;2022-09-20T16:23:47;12.20;99.90
39079;DHT22;24829;49.208;12.080;2022-09-20T16:26:13;12.20;99.90
39079;DHT22;24829;49.208;12.080;2022-09-20T16:28:39;12.20;99.90
39079;DHT22;24829;49.208;12.080;2022-09-20T16:31:05;12.10;99.90
39079;DHT22;24829;49.208;12.080;2022-09-20T16:33:32;12.00;99.90
39079;DHT22;24829;49.208;12.080;2022-09-20T16:36:00;12.00;99.90
39079;DHT22;24829;49.208;12.080;2022-09-20T16:38:26;11.90;99.90
39079;DHT22;24829;49.208;12.080;2022-09-20T16:40:52;11.90;99.90
39079;DHT22;24829;49.208;12.080;2022-09-20T16:43:20;12.00;99.90
39079;DHT22;24829;49.208;12.080;2022-09-20T16:45:58;11.90;99.90
39079;DHT22;24829;49.208;12.080;2022-09-20T16:48:25;11.80;99.90
39079;DHT22;24829;49.208;12.080;2022-09-20T16:50:55;11.70;99.90
39079;DHT22;24829;49.208;12.080;2022-09-20T16:53:20;11.60;99.90
39079;DHT22;24829;49.208;12.080;2022-09-20T16:55:46;11.60;99.90
39079;DHT22;24829;49.208;12.080;2022-09-20T16:58:13;11.60;99.90
39079;DHT22;24829;49.208;12.080;2022-09-20T17:00:39;11.60;99.90
39079;DHT22;24829;49.208;12.080;2022-09-20T17:03:04;11.50;99.90
39079;DHT22;24829;49.208;12.080;2022-09-20T17:05:30;11.40;99.90
39079;DHT22;24829;49.208;12.080;2022-09-20T17:07:56;11.40;99.90
39079;DHT22;24829;49.208;12.080;2022-09-20T17:10:21;11.40;99.90
39079;DHT22;24829;49.208;12.080;2022-09-20T17:12:49;11.30;99.90
39079;DHT22;24829;49.208;12.080;2022-09-20T17:15:17;11.30;99.90
39079;DHT22;24829;49.208;12.080;2022-09-20T17:17:43;11.20;99.90
39079;DHT22;24829;49.208;12.080;2022-09-20T17:20:09;11.20;99.90
39079;DHT22;24829;49.208;12.080;2022-09-20T17:22:35;11.20;99.90
39079;DHT22;24829;49.208;12.080;2022-09-20T17:25:01;11.10;99.90
39079;DHT22;24829;49.208;12.080;2022-09-20T17:27:26;11.00;99.90
39079;DHT22;24829;49.208;12.080;2022-09-20T17:29:52;11.00;99.90
39079;DHT22;24829;49.208;12.080;2022-09-20T17:32:18;11.00;99.90
39079;DHT22;24829;49.208;12.080;2022-09-20T17:34:44;10.90;99.90
39079;DHT22;24829;49.208;12.080;2022-09-20T17:37:10;10.90;99.90
39079;DHT22;24829;49.208;12.080;2022-09-20T17:39:35;10.80;99.90
39079;DHT22;24829;49.208;12.080;2022-09-20T17:42:01;10.80;99.90
39079;DHT22;24829;49.208;12.080;2022-09-20T17:44:27;10.70;99.90
39079;DHT22;24829;49.208;12.080;2022-09-20T17:46:52;10.70;99.90
39079;DHT22;24829;49.208;12.080;2022-09-20T17:49:22;10.60;99.90
39079;DHT22;24829;49.208;12.080;2022-09-20T17:51:49;10.50;99.90
39079;DHT22;24829;49.208;12.080;2022-09-20T17:54:14;10.50;99.90
39079;DHT22;24829;49.208;12.080;2022-09-20T17:56:41;10.40;99.90
39079;DHT22;24829;49.208;12.080;2022-09-20T17:59:08;10.40;99.90
39079;DHT22;24829;49.208;12.080;2022-09-20T18:01:35;10.40;99.90
39079;DHT22;24829;49.208;12.080;2022-09-20T18:04:03;10.30;99.90
39079;DHT22;24829;49.208;12.080;2022-09-20T18:06:32;10.40;99.90
39079;DHT22;24829;49.208;12.080;2022-09-20T18:08:59;10.30;99.90
39079;DHT22;24829;49.208;12.080;2022-09-20T18:11:34;10.30;99.90
39079;DHT22;24829;49.208;12.080;2022-09-20T18:14:01;10.20;99.90
39079;DHT22;24829;49.208;12.080;2022-09-20T18:16:28;10.20;99.90
39079;DHT22;24829;49.208;12.080;2022-09-20T18:18:55;10.20;99.90
39079;DHT22;24829;49.208;12.080;2022-09-20T18:21:22;10.10;99.90
39079;DHT22;24829;49.208;12.080;2022-09-20T18:23:49;10.10;99.90
39079;DHT22;24829;49.208;12.080;2022-09-20T18:26:18;10.10;99.90
39079;DHT22;24829;49.208;12.080;2022-09-20T18:29:19;10.10;99.90
39079;DHT22;24829;49.208;12.080;2022-09-20T18:31:50;10.10;99.90
39079;DHT22;24829;49.208;12.080;2022-09-20T18:34:21;10.10;99.90
39079;DHT22;24829;49.208;12.080;2022-09-20T18:36:50;10.10;99.90
39079;DHT22;24829;49.208;12.080;2022-09-20T18:39:31;10.10;99.90
39079;DHT22;24829;49.208;12.080;2022-09-20T18:41:57;10.00;99.90
39079;DHT22;24829;49.208;12.080;2022-09-20T18:44:22;10.00;99.90
39079;DHT22;24829;49.208;12.080;2022-09-20T18:46:49;10.00;99.90
39079;DHT22;24829;49.208;12.080;2022-09-20T18:49:16;9.90;99.90
39079;DHT22;24829;49.208;12.080;2022-09-20T18:51:43;9.90;99.90
39079;DHT22;24829;49.208;12.080;2022-09-20T18:54:10;9.90;99.90
39079;DHT22;24829;49.208;12.080;2022-09-20T18:56:38;9.80;99.90
39079;DHT22;24829;49.208;12.080;2022-09-20T19:06:42;9.70;99.90
39079;DHT22;24829;49.208;12.080;2022-09-20T19:09:25;9.70;99.90
39079;DHT22;24829;49.208;12.080;2022-09-20T19:12:03;9.60;99.90
39079;DHT22;24829;49.208;12.080;2022-09-20T19:14:56;9.70;99.90
39079;DHT22;24829;49.208;12.080;2022-09-20T19:23:18;9.60;99.90
39079;DHT22;24829;49.208;12.080;2022-09-20T19:26:18;9.60;99.90
39079;DHT22;24829;49.208;12.080;2022-09-20T19:28:39;9.60;99.90
39079;DHT22;24829;49.208;12.080;2022-09-20T19:31:05;9.50;99.90
39079;DHT22;24829;49.208;12.080;2022-09-20T19:33:30;9.50;99.90
39079;DHT22;24829;49.208;12.080;2022-09-20T19:35:56;9.50;99.90
39079;DHT22;24829;49.208;12.080;2022-09-20T19:41:23;9.40;99.90
39079;DHT22;24829;49.208;12.080;2022-09-20T19:43:55;9.40;99.90
39079;DHT22;24829;49.208;12.080;2022-09-20T19:49:15;9.30;99.90
39079;DHT22;24829;49.208;12.080;2022-09-20T19:51:43;9.20;99.90
39079;DHT22;24829;49.208;12.080;2022-09-20T19:54:14;9.10;99.90
39079;DHT22;24829;49.208;12.080;2022-09-20T19:56:54;9.10;99.90
39079;DHT22;24829;49.208;12.080;2022-09-20T19:59:21;9.10;99.90
39079;DHT22;24829;49.208;12.080;2022-09-20T20:01:48;9.00;99.90
39079;DHT22;24829;49.208;12.080;2022-09-20T20:04:14;9.00;99.90
39079;DHT22;24829;49.208;12.080;2022-09-20T20:07:01;8.90;99.90
39079;DHT22;24829;49.208;12.080;2022-09-20T20:12:22;8.80;99.90
39079;DHT22;24829;49.208;12.080;2022-09-20T20:15:11;8.70;99.90
39079;DHT22;24829;49.208;12.080;2022-09-20T20:17:58;8.70;99.90
39079;DHT22;24829;49.208;12.080;2022-09-20T20:23:17;8.60;99.90
39079;DHT22;24829;49.208;12.080;2022-09-20T20:28:25;8.40;99.90
39079;DHT22;24829;49.208;12.080;2022-09-20T20:30:51;8.40;99.90
39079;DHT22;24829;49.208;12.080;2022-09-20T20:33:16;8.30;99.90
39079;DHT22;24829;49.208;12.080;2022-09-20T20:35:51;8.30;99.90
39079;DHT22;24829;49.208;12.080;2022-09-20T20:38:17;8.20;99.90
39079;DHT22;24829;49.208;12.080;2022-09-20T20:40:43;8.20;99.90
39079;DHT22;24829;49.208;12.080;2022-09-20T20:43:08;8.20;99.90
39079;DHT22;24829;49.208;12.080;2022-09-20T20:45:34;8.30;99.90
39079;DHT22;24829;49.208;12.080;2022-09-20T20:48:00;8.30;99.90
39079;DHT22;24829;49.208;12.080;2022-09-20T20:50:26;8.30;99.90
39079;DHT22;24829;49.208;12.080;2022-09-20T20:52:54;8.30;99.90